Enter the Airport ICAO Code

Search by Airport or City

Current Weather

MDPC | Punta Cana International Airport

Punta Cana, Dominican Republic

Last Update 15 Minutes Ago

Sky with Few Clouds

Temperature of 27 ºC

Moderate Winds from East

Temperature

27 ºC

Dew Point Temperature

23 ºC

Relative Humidity

78.89 %

Wind Direction

East (100º, Without Significant Variations)

Wind Velocity

19 km/h (10 kt)

Gusts

None

Visibility

Greater than 10 Kilometers

Sea Level Pressure

1019 hPa (Hectopascals)

Layers of Clouds

5% to 30% of Sky Covered from 549 mts (1800 ft) Above Ground Level.

METAR MDPC 191200Z 10010KT 9999 FEW018 27/23 Q1019

Weather Forecast

MDPC | Punta Cana International Airport

Punta Cana, Dominican Republic

Forecast valid for the next 24 Hours

From now on it is expected:

Partly Cloudy Sky

Moderate Winds from East

Maximum Temperature

No Data

Minimum Temperature

No Data

TAF MDPC 191000Z 1912/2012 08010KT 9999 FEW018 SCT300 PROB30 1912/1916 8000 -RA BKN018 SCT070